createdAt,value
2023-03-17T00:01:25.665Z,6.33
2023-03-17T00:03:55.209Z,5.50
2023-03-17T00:06:29.264Z,5.77
2023-03-17T00:08:58.258Z,7.40
2023-03-17T00:11:28.964Z,5.60
2023-03-17T00:13:57.637Z,5.93
2023-03-17T00:16:28.186Z,6.67
2023-03-17T00:18:57.565Z,5.93
2023-03-17T00:21:29.124Z,7.07
2023-03-17T00:23:57.654Z,6.77
2023-03-17T00:26:27.834Z,7.43
2023-03-17T00:28:56.238Z,6.90
2023-03-17T00:31:27.251Z,7.17
2023-03-17T00:33:55.963Z,7.33
2023-03-17T00:36:28.030Z,6.13
2023-03-17T00:38:57.228Z,6.80
2023-03-17T00:41:29.474Z,6.97
2023-03-17T00:43:57.714Z,7.10
2023-03-17T00:46:28.784Z,6.23
2023-03-17T00:48:58.547Z,7.80
2023-03-17T00:51:27.032Z,9.53
2023-03-17T00:53:57.015Z,7.53
2023-03-17T00:56:25.141Z,6.50
2023-03-17T00:58:54.871Z,6.40
2023-03-17T01:01:23.191Z,6.60
2023-03-17T01:03:51.344Z,6.00
2023-03-17T01:06:20.155Z,6.73
2023-03-17T01:08:48.549Z,6.43
2023-03-17T01:11:19.080Z,5.97
2023-03-17T01:13:49.033Z,6.23
2023-03-17T01:16:18.594Z,5.40
2023-03-17T01:18:46.788Z,6.23
2023-03-17T01:21:15.388Z,6.43
2023-03-17T01:23:43.646Z,6.20
2023-03-17T01:26:12.617Z,8.00
2023-03-17T01:28:40.778Z,6.93
2023-03-17T01:31:09.618Z,7.40
2023-03-17T01:33:39.715Z,6.30
2023-03-17T01:36:08.542Z,7.00
2023-03-17T01:38:37.640Z,7.23
2023-03-17T01:41:06.402Z,6.40
2023-03-17T01:43:34.801Z,7.07
2023-03-17T01:46:25.319Z,7.40
2023-03-17T01:49:14.593Z,10.57
2023-03-17T01:51:50.538Z,6.53
2023-03-17T01:54:25.383Z,7.90
2023-03-17T01:56:56.228Z,6.17
2023-03-17T01:59:29.011Z,6.50
2023-03-17T02:02:02.299Z,6.40
2023-03-17T02:04:32.681Z,7.40
2023-03-17T02:07:03.822Z,6.37
2023-03-17T02:09:34.057Z,6.03
2023-03-17T02:12:03.791Z,7.70
2023-03-17T02:14:32.515Z,6.20
2023-03-17T02:17:00.775Z,6.50
2023-03-17T02:19:29.400Z,6.97
2023-03-17T02:22:00.602Z,7.00
2023-03-17T02:24:34.314Z,7.17
2023-03-17T02:27:06.991Z,6.33
2023-03-17T02:29:37.800Z,7.50
2023-03-17T02:32:06.660Z,7.30
2023-03-17T02:34:35.699Z,6.10
2023-03-17T02:37:07.784Z,6.30
2023-03-17T02:39:36.378Z,6.40
2023-03-17T02:42:05.439Z,7.30
2023-03-17T02:44:35.609Z,7.20
2023-03-17T02:47:04.360Z,5.70
2023-03-17T02:49:33.966Z,8.40
2023-03-17T02:52:02.599Z,7.87
2023-03-17T02:54:32.136Z,6.23
2023-03-17T02:57:00.352Z,7.33
2023-03-17T02:59:29.129Z,7.30
2023-03-17T03:01:57.162Z,5.90
2023-03-17T03:04:26.263Z,6.37
2023-03-17T03:06:54.823Z,7.50
2023-03-17T03:09:24.268Z,6.97
2023-03-17T03:11:53.843Z,7.17
2023-03-17T03:14:22.088Z,6.90
2023-03-17T03:16:50.274Z,7.07
2023-03-17T03:19:18.753Z,6.60
2023-03-17T03:21:47.244Z,7.80
2023-03-17T03:24:15.299Z,8.10
2023-03-17T03:26:43.837Z,7.23
2023-03-17T03:29:13.457Z,8.57
2023-03-17T03:31:42.437Z,7.30
2023-03-17T03:34:10.527Z,7.00
2023-03-17T03:36:38.923Z,7.10
2023-03-17T03:39:08.007Z,7.00
2023-03-17T03:41:36.767Z,6.60
2023-03-17T03:44:04.843Z,8.57
2023-03-17T03:46:34.363Z,7.20
2023-03-17T03:49:02.577Z,7.07
2023-03-17T03:51:30.718Z,6.03
2023-03-17T03:53:58.859Z,7.73
2023-03-17T03:56:27.094Z,7.80
2023-03-17T03:58:56.493Z,6.80
2023-03-17T04:01:24.710Z,7.33
2023-03-17T04:03:54.205Z,7.23
2023-03-17T04:06:22.313Z,7.43
2023-03-17T04:08:50.412Z,7.80
2023-03-17T04:11:18.520Z,6.87
2023-03-17T04:13:46.600Z,6.70
2023-03-17T04:16:14.699Z,8.23
2023-03-17T04:18:42.963Z,9.40
2023-03-17T04:21:13.556Z,7.60
2023-03-17T04:23:41.668Z,7.97
2023-03-17T04:26:10.466Z,9.27
2023-03-17T04:28:38.772Z,9.47
2023-03-17T04:31:07.667Z,9.57
2023-03-17T04:33:35.778Z,7.50
2023-03-17T04:36:04.090Z,6.07
2023-03-17T04:38:33.688Z,8.30
2023-03-17T04:41:02.439Z,6.60
2023-03-17T04:43:30.602Z,8.07
2023-03-17T04:45:58.776Z,8.23
2023-03-17T04:48:26.969Z,7.27
2023-03-17T04:50:55.153Z,8.30
2023-03-17T04:53:23.415Z,9.03
2023-03-17T04:55:52.884Z,6.70
2023-03-17T04:58:30.498Z,7.17
2023-03-17T05:00:59.419Z,8.93
2023-03-17T05:03:28.577Z,8.10
2023-03-17T05:05:57.382Z,7.00
2023-03-17T05:08:26.302Z,7.63
2023-03-17T05:10:56.031Z,6.67
2023-03-17T05:13:24.975Z,7.60
2023-03-17T05:15:55.286Z,7.70
2023-03-17T05:18:26.025Z,7.60
2023-03-17T05:20:54.538Z,7.70
2023-03-17T05:23:23.157Z,7.43
2023-03-17T05:25:51.434Z,7.50
2023-03-17T05:28:21.426Z,8.07
2023-03-17T05:30:50.361Z,8.30
2023-03-17T05:33:18.969Z,8.10
2023-03-17T05:35:47.492Z,8.00
2023-03-17T05:38:16.381Z,7.40
2023-03-17T05:40:45.896Z,7.97
2023-03-17T05:43:13.984Z,7.80
2023-03-17T05:45:43.494Z,10.10
2023-03-17T05:48:12.451Z,11.23
2023-03-17T05:50:41.662Z,8.33
2023-03-17T05:53:10.657Z,7.83
2023-03-17T05:55:38.915Z,12.93
2023-03-17T05:58:07.837Z,9.20
2023-03-17T06:00:36.456Z,8.80
2023-03-17T06:03:09.515Z,7.77
2023-03-17T06:05:38.804Z,9.03
2023-03-17T06:08:07.287Z,10.63
2023-03-17T06:10:38.549Z,8.20
2023-03-17T06:13:06.722Z,9.00
2023-03-17T06:15:36.230Z,11.23
2023-03-17T06:18:06.234Z,8.70
2023-03-17T06:20:35.418Z,7.30
2023-03-17T06:23:05.734Z,8.27
2023-03-17T06:25:35.480Z,10.43
2023-03-17T06:28:05.548Z,11.70
2023-03-17T06:30:34.999Z,8.80
2023-03-17T06:33:03.392Z,7.53
2023-03-17T06:35:34.347Z,7.50
2023-03-17T06:38:03.454Z,8.10
2023-03-17T06:40:32.182Z,8.90
2023-03-17T06:43:01.214Z,10.33
2023-03-17T06:45:29.805Z,8.73
2023-03-17T06:47:58.133Z,8.23
2023-03-17T06:50:27.272Z,7.87
2023-03-17T06:52:56.700Z,8.60
2023-03-17T06:55:28.011Z,9.40
2023-03-17T06:58:00.439Z,8.00
2023-03-17T07:00:28.641Z,8.00
2023-03-17T07:02:56.899Z,8.80
2023-03-17T07:05:25.117Z,8.80
2023-03-17T07:07:53.338Z,7.60
2023-03-17T07:10:23.412Z,7.50
2023-03-17T07:12:51.633Z,11.23
2023-03-17T07:15:20.861Z,7.47
2023-03-17T07:17:48.980Z,9.27
2023-03-17T07:20:17.864Z,7.07
2023-03-17T07:22:46.554Z,9.33
2023-03-17T07:25:15.572Z,8.40
2023-03-17T07:30:28.659Z,7.17
2023-03-17T07:32:58.218Z,7.77
2023-03-17T07:35:27.802Z,8.80
2023-03-17T07:37:55.994Z,8.03
2023-03-17T07:40:24.141Z,7.60
2023-03-17T07:42:52.392Z,8.13
2023-03-17T07:45:20.656Z,8.20
2023-03-17T07:47:50.662Z,7.40
2023-03-17T07:50:19.248Z,7.13
2023-03-17T07:52:47.727Z,7.40
2023-03-17T07:55:16.580Z,7.27
2023-03-17T07:57:45.065Z,8.60
2023-03-17T08:00:17.367Z,6.03
2023-03-17T08:02:48.192Z,7.70
2023-03-17T08:05:35.782Z,7.10
2023-03-17T08:08:35.725Z,5.77
2023-03-17T08:11:05.688Z,6.67
2023-03-17T08:13:40.448Z,8.90
2023-03-17T08:16:08.980Z,6.80
2023-03-17T08:18:37.691Z,6.40
2023-03-17T08:21:07.500Z,6.90
2023-03-17T08:23:35.665Z,6.43
2023-03-17T08:26:04.892Z,7.23
2023-03-17T08:28:33.470Z,5.83
2023-03-17T08:31:12.218Z,7.80
2023-03-17T08:33:42.404Z,8.10
2023-03-17T08:36:12.853Z,5.50
2023-03-17T08:38:42.637Z,7.13
2023-03-17T08:41:12.402Z,7.03
2023-03-17T08:43:41.996Z,5.70
2023-03-17T08:46:15.819Z,8.80
2023-03-17T08:48:45.409Z,6.33
2023-03-17T08:51:18.560Z,7.90
2023-03-17T08:53:47.778Z,8.37
2023-03-17T08:56:16.888Z,6.50
2023-03-17T08:58:45.815Z,5.47
2023-03-17T09:01:14.512Z,5.30
2023-03-17T09:03:43.383Z,6.73
2023-03-17T09:06:13.666Z,7.33
2023-03-17T09:08:47.315Z,8.23
2023-03-17T09:11:17.777Z,6.33
2023-03-17T09:13:47.444Z,6.23
2023-03-17T09:16:16.251Z,6.20
2023-03-17T09:18:44.892Z,5.60
2023-03-17T09:21:14.858Z,6.87
2023-03-17T09:23:44.601Z,7.30
2023-03-17T09:26:13.561Z,7.30
2023-03-17T09:28:41.749Z,5.90
2023-03-17T09:31:11.439Z,6.70
2023-03-17T09:33:40.660Z,6.00
2023-03-17T09:36:10.150Z,7.00
2023-03-17T09:38:38.953Z,6.77
2023-03-17T09:41:53.000Z,5.93
2023-03-17T09:44:31.146Z,5.90
2023-03-17T09:47:07.614Z,5.83
2023-03-17T09:49:44.843Z,5.20
2023-03-17T09:52:14.895Z,7.30
2023-03-17T09:54:43.880Z,6.10
2023-03-17T09:57:18.070Z,5.70
2023-03-17T09:59:48.455Z,5.57
2023-03-17T10:02:22.883Z,5.10
2023-03-17T10:04:51.677Z,7.33
2023-03-17T10:07:27.022Z,4.87
2023-03-17T10:10:02.944Z,5.43
2023-03-17T10:12:46.801Z,6.00
2023-03-17T10:15:22.703Z,7.93
2023-03-17T10:17:53.393Z,6.40
2023-03-17T10:20:27.049Z,7.20
2023-03-17T10:22:58.178Z,7.47
2023-03-17T10:25:31.917Z,7.67
2023-03-17T10:28:09.032Z,6.90
2023-03-17T10:30:38.471Z,6.00
2023-03-17T10:33:07.988Z,8.80
2023-03-17T10:35:37.547Z,5.03
2023-03-17T10:38:17.076Z,5.80
2023-03-17T10:40:48.905Z,7.23
2023-03-17T10:43:23.517Z,5.27
2023-03-17T10:46:02.102Z,5.53
2023-03-17T10:48:31.436Z,6.73
2023-03-17T10:51:00.216Z,6.03
2023-03-17T10:53:29.581Z,6.13
2023-03-17T10:56:01.393Z,5.90
2023-03-17T10:58:42.362Z,6.83
2023-03-17T11:01:21.596Z,5.70
2023-03-17T11:03:50.847Z,5.90
2023-03-17T11:06:21.643Z,5.50
2023-03-17T11:08:51.379Z,6.13
2023-03-17T11:11:27.148Z,6.70
2023-03-17T11:14:05.000Z,5.83
2023-03-17T11:16:37.491Z,6.30
2023-03-17T11:19:09.372Z,6.17
2023-03-17T11:21:48.659Z,8.47
2023-03-17T11:24:21.238Z,6.70
2023-03-17T11:26:57.849Z,6.00
2023-03-17T11:29:48.077Z,7.20
2023-03-17T11:32:26.910Z,6.73
2023-03-17T11:35:28.250Z,6.63
2023-03-17T11:38:24.562Z,5.70
2023-03-17T11:41:18.784Z,7.10
2023-03-17T11:44:01.596Z,7.13
2023-03-17T11:46:35.553Z,5.87
2023-03-17T11:49:11.280Z,6.50
2023-03-17T11:51:51.667Z,6.80
2023-03-17T11:54:27.963Z,6.20
2023-03-17T11:56:59.968Z,6.50
2023-03-17T11:59:33.820Z,6.00
2023-03-17T12:02:15.251Z,5.50
2023-03-17T12:04:50.899Z,10.17
2023-03-17T12:07:23.553Z,6.80
2023-03-17T12:09:59.596Z,6.53
2023-03-17T12:12:33.144Z,6.23
2023-03-17T12:15:02.915Z,7.50
2023-03-17T12:17:39.535Z,5.87
2023-03-17T12:20:16.324Z,8.50
2023-03-17T12:22:48.177Z,6.40
2023-03-17T12:25:24.631Z,7.70
2023-03-17T12:28:01.306Z,8.10
2023-03-17T12:30:35.315Z,6.60
2023-03-17T12:33:18.167Z,7.10
2023-03-17T12:35:46.587Z,5.90
2023-03-17T12:38:20.764Z,7.63
2023-03-17T12:41:15.734Z,7.80
2023-03-17T12:43:56.920Z,5.97
2023-03-17T12:46:47.482Z,8.43
2023-03-17T12:49:57.558Z,8.13
2023-03-17T12:52:45.953Z,7.90
2023-03-17T12:55:18.271Z,6.90
2023-03-17T12:57:48.483Z,8.00
2023-03-17T13:00:21.468Z,7.70
2023-03-17T13:02:52.349Z,6.73
2023-03-17T13:05:33.952Z,6.77
2023-03-17T13:08:05.684Z,9.73
2023-03-17T13:10:40.889Z,8.10
2023-03-17T13:13:13.778Z,9.27
2023-03-17T13:15:59.835Z,6.87
2023-03-17T13:18:50.314Z,8.33
2023-03-17T13:21:26.350Z,8.10
2023-03-17T13:24:39.610Z,8.87
2023-03-17T13:27:13.364Z,7.67
2023-03-17T13:29:48.669Z,10.63
2023-03-17T13:32:42.889Z,8.83
2023-03-17T13:35:25.093Z,7.83
2023-03-17T13:38:31.262Z,8.10
2023-03-17T13:41:48.408Z,6.70
2023-03-17T13:44:32.733Z,7.90
2023-03-17T13:47:17.589Z,8.40
2023-03-17T13:49:50.622Z,9.50
2023-03-17T13:52:24.958Z,8.27
2023-03-17T13:55:05.344Z,7.87
2023-03-17T13:57:37.465Z,7.33
2023-03-17T14:00:22.640Z,9.87
2023-03-17T14:02:54.719Z,7.87
2023-03-17T14:05:28.219Z,8.10
2023-03-17T14:08:00.684Z,8.43
2023-03-17T14:10:34.087Z,8.17
2023-03-17T14:13:13.174Z,8.40
2023-03-17T14:15:48.099Z,7.87
2023-03-17T14:18:18.179Z,7.80
2023-03-17T14:20:54.873Z,7.70
2023-03-17T14:23:24.430Z,8.63
2023-03-17T14:25:56.958Z,11.13
2023-03-17T14:28:28.493Z,8.23
2023-03-17T14:31:00.568Z,7.30
2023-03-17T14:33:30.572Z,7.10
2023-03-17T14:36:00.463Z,8.20
2023-03-17T14:38:30.340Z,8.10
2023-03-17T14:41:05.316Z,9.20
2023-03-17T14:43:35.256Z,8.07
2023-03-17T14:46:05.334Z,9.23
2023-03-17T14:48:36.437Z,8.07
2023-03-17T14:51:16.071Z,12.13
2023-03-17T14:53:46.606Z,8.77
2023-03-17T14:56:21.921Z,8.33
2023-03-17T14:58:52.573Z,8.93
2023-03-17T15:01:33.146Z,9.63
2023-03-17T15:04:09.372Z,10.23
2023-03-17T15:06:47.898Z,9.50
2023-03-17T15:09:21.715Z,8.83
2023-03-17T15:11:51.868Z,8.00
2023-03-17T15:14:23.858Z,9.67
2023-03-17T15:16:53.479Z,8.93
2023-03-17T15:19:27.588Z,10.00
2023-03-17T15:22:00.251Z,8.00
2023-03-17T15:24:38.268Z,8.73
2023-03-17T15:27:14.212Z,9.13
2023-03-17T15:29:42.624Z,8.43
2023-03-17T15:32:15.705Z,9.40
2023-03-17T15:34:44.464Z,8.30
2023-03-17T15:37:20.524Z,9.80
2023-03-17T15:39:49.404Z,9.07
2023-03-17T15:42:20.130Z,10.33
2023-03-17T15:44:48.564Z,8.90
2023-03-17T15:47:18.769Z,9.00
2023-03-17T15:49:48.210Z,8.40
2023-03-17T15:52:18.457Z,9.50
2023-03-17T15:54:46.887Z,8.40
2023-03-17T15:57:15.298Z,14.80
2023-03-17T15:59:45.088Z,21.90
2023-03-17T16:02:27.554Z,11.97
2023-03-17T16:04:57.082Z,8.30
2023-03-17T16:07:25.929Z,8.47
2023-03-17T16:09:54.532Z,9.67
2023-03-17T16:12:22.736Z,9.80
2023-03-17T16:14:52.255Z,8.10
2023-03-17T16:17:26.746Z,8.07
2023-03-17T16:19:55.974Z,9.00
2023-03-17T16:22:39.368Z,9.17
2023-03-17T16:25:19.807Z,8.47
2023-03-17T16:27:48.854Z,7.67
2023-03-17T16:30:21.186Z,8.30
2023-03-17T16:32:50.174Z,8.97
2023-03-17T16:35:20.618Z,8.53
2023-03-17T16:37:52.269Z,9.20
2023-03-17T16:40:22.951Z,9.40
2023-03-17T16:42:52.015Z,9.87
2023-03-17T16:46:29.847Z,9.87
2023-03-17T16:48:59.491Z,9.27
2023-03-17T16:51:27.643Z,12.37
2023-03-17T16:53:55.811Z,8.80
2023-03-17T16:56:26.282Z,11.37
2023-03-17T16:58:54.383Z,8.50
2023-03-17T17:01:26.169Z,8.63
2023-03-17T17:03:54.883Z,8.63
2023-03-17T17:06:25.228Z,8.33
2023-03-17T17:08:53.941Z,9.50
2023-03-17T17:11:22.690Z,10.87
2023-03-17T17:13:51.722Z,10.47
2023-03-17T17:16:24.432Z,9.10
2023-03-17T17:18:52.703Z,9.90
2023-03-17T17:21:20.812Z,10.80
2023-03-17T17:23:52.895Z,11.87
2023-03-17T17:26:22.038Z,16.03
2023-03-17T17:28:50.402Z,16.20
2023-03-17T17:31:18.837Z,13.47
2023-03-17T17:33:47.084Z,15.87
2023-03-17T17:36:17.206Z,13.83
2023-03-17T17:38:45.906Z,12.43
2023-03-17T17:41:21.295Z,11.13
2023-03-17T17:43:50.315Z,12.60
2023-03-17T17:46:20.383Z,15.30
2023-03-17T17:48:50.105Z,14.30
2023-03-17T17:51:18.689Z,14.17
2023-03-17T17:53:46.753Z,14.43
2023-03-17T17:56:20.395Z,12.57
2023-03-17T17:58:48.728Z,14.20
2023-03-17T18:01:20.130Z,14.97
2023-03-17T18:03:48.634Z,12.47
2023-03-17T18:06:17.931Z,12.87
2023-03-17T18:08:46.319Z,12.03
2023-03-17T18:11:14.492Z,12.03
2023-03-17T18:13:44.082Z,16.43
2023-03-17T18:16:16.267Z,18.43
2023-03-17T18:18:45.985Z,17.87
2023-03-17T18:21:14.917Z,12.97
2023-03-17T18:23:47.033Z,14.00
2023-03-17T18:26:17.092Z,13.07
2023-03-17T18:28:47.950Z,12.13
2023-03-17T18:31:19.998Z,11.87
2023-03-17T18:33:50.059Z,11.13
2023-03-17T18:36:18.505Z,13.70
2023-03-17T18:38:46.713Z,12.80
2023-03-17T18:41:15.570Z,12.70
2023-03-17T18:43:44.838Z,11.97
2023-03-17T18:46:14.609Z,11.60
2023-03-17T18:48:42.692Z,13.10
2023-03-17T18:51:11.117Z,12.30
2023-03-17T18:53:39.298Z,11.83
2023-03-17T18:56:08.099Z,10.97
2023-03-17T18:58:36.727Z,12.20
2023-03-17T19:01:05.031Z,11.63
2023-03-17T19:03:36.253Z,10.97
2023-03-17T19:06:13.648Z,14.40
2023-03-17T19:08:41.971Z,11.37
2023-03-17T19:11:11.843Z,12.70
2023-03-17T19:13:40.646Z,12.70
2023-03-17T19:16:10.459Z,13.17
2023-03-17T19:18:42.253Z,12.63
2023-03-17T19:21:11.931Z,22.87
2023-03-17T19:23:41.599Z,16.37
2023-03-17T19:26:10.308Z,18.53
2023-03-17T19:28:38.718Z,13.03
2023-03-17T19:31:07.607Z,15.13
2023-03-17T19:33:36.026Z,12.97
2023-03-17T19:36:11.617Z,13.27
2023-03-17T19:38:42.920Z,20.17
2023-03-17T19:41:11.319Z,17.73
2023-03-17T19:43:41.422Z,14.17
2023-03-17T19:46:10.172Z,13.87
2023-03-17T19:48:38.590Z,11.97
2023-03-17T19:51:08.234Z,10.87
2023-03-17T19:53:37.658Z,10.60
2023-03-17T19:56:06.384Z,10.40
2023-03-17T19:58:34.562Z,11.63
2023-03-17T20:01:03.722Z,11.47
2023-03-17T20:03:33.556Z,11.87
2023-03-17T20:06:05.891Z,10.77
2023-03-17T20:08:35.682Z,12.80
2023-03-17T20:11:05.690Z,11.47
2023-03-17T20:13:34.480Z,11.47
2023-03-17T20:16:03.612Z,12.37
2023-03-17T20:18:32.236Z,10.50
2023-03-17T20:21:01.639Z,10.77
2023-03-17T20:23:29.839Z,13.80
2023-03-17T20:25:59.363Z,13.10
2023-03-17T20:28:29.907Z,11.63
2023-03-17T20:31:00.675Z,13.50
2023-03-17T20:33:28.957Z,16.03
2023-03-17T20:36:00.015Z,11.53
2023-03-17T20:38:28.873Z,11.53
2023-03-17T20:41:21.558Z,11.83
2023-03-17T20:47:32.163Z,12.53
2023-03-17T20:53:59.826Z,12.97
2023-03-17T20:56:38.546Z,9.30
2023-03-17T20:59:09.654Z,10.93
2023-03-17T21:01:40.286Z,8.20
2023-03-17T21:04:09.868Z,10.97
2023-03-17T21:06:39.446Z,12.30
2023-03-17T21:09:07.692Z,12.03
2023-03-17T21:11:38.939Z,8.90
2023-03-17T21:14:08.029Z,8.60
2023-03-17T21:16:37.667Z,8.07
2023-03-17T21:19:09.248Z,8.40
2023-03-17T21:21:37.854Z,10.80
2023-03-17T21:24:08.412Z,8.90
2023-03-17T21:26:38.707Z,8.00
2023-03-17T21:29:06.778Z,8.93
2023-03-17T21:31:35.257Z,8.47
2023-03-17T21:34:03.299Z,7.67
2023-03-17T21:36:31.824Z,9.43
2023-03-17T21:39:00.032Z,6.57
2023-03-17T21:41:33.171Z,7.03
2023-03-17T21:44:03.987Z,7.00
2023-03-17T21:46:33.495Z,6.67
2023-03-17T21:49:01.738Z,6.50
2023-03-17T21:51:29.915Z,8.60
2023-03-17T21:53:58.473Z,7.60
2023-03-17T21:56:27.385Z,6.83
2023-03-17T21:58:55.479Z,7.93
2023-03-17T22:01:26.065Z,8.40
2023-03-17T22:03:54.430Z,7.63
2023-03-17T22:06:29.457Z,9.17
2023-03-17T22:08:57.726Z,7.43
2023-03-17T22:11:25.820Z,8.10
2023-03-17T22:14:08.375Z,8.87
2023-03-17T22:16:38.505Z,7.40
2023-03-17T22:19:07.133Z,8.37
2023-03-17T22:21:35.413Z,8.23
2023-03-17T22:24:03.496Z,6.57
2023-03-17T22:26:31.518Z,6.40
2023-03-17T22:28:59.632Z,6.27
2023-03-17T22:31:29.533Z,5.70
2023-03-17T22:34:00.073Z,8.50
2023-03-17T22:36:28.884Z,6.67
2023-03-17T22:38:58.322Z,7.70
2023-03-17T22:41:29.062Z,7.93
2023-03-17T22:43:57.897Z,6.53
2023-03-17T22:46:27.189Z,6.10
2023-03-17T22:48:55.500Z,6.40
2023-03-17T22:51:26.651Z,7.30
2023-03-17T22:53:56.405Z,7.47
2023-03-17T22:56:24.970Z,7.30
2023-03-17T22:58:53.699Z,11.80
2023-03-17T23:01:23.858Z,6.13
2023-03-17T23:03:52.385Z,6.57
2023-03-17T23:06:21.039Z,6.57
2023-03-17T23:08:50.929Z,8.73
2023-03-17T23:11:22.224Z,5.73
2023-03-17T23:13:51.373Z,7.80
2023-03-17T23:16:20.287Z,6.30
2023-03-17T23:18:48.571Z,6.53
2023-03-17T23:21:25.138Z,6.00
2023-03-17T23:23:55.036Z,6.80
2023-03-17T23:26:23.945Z,8.27
2023-03-17T23:28:52.112Z,7.20
2023-03-17T23:31:22.519Z,5.90
2023-03-17T23:33:51.418Z,6.93
2023-03-17T23:36:20.060Z,7.67
2023-03-17T23:38:49.514Z,6.70
2023-03-17T23:41:19.684Z,6.40
2023-03-17T23:43:47.853Z,6.47
2023-03-17T23:46:16.114Z,6.03
2023-03-17T23:48:44.553Z,6.00
2023-03-17T23:51:14.309Z,9.07
2023-03-17T23:53:42.986Z,8.40
2023-03-17T23:56:19.391Z,6.43
2023-03-17T23:58:49.052Z,8.53
